sensor_id;sensor_type;location;lat;lon;timestamp;temperature;humidity
12303;DHT22;6214;48.012;7.862;2023-04-24T00:01:25;13.60;99.90
12303;DHT22;6214;48.012;7.862;2023-04-24T00:03:52;13.70;99.90
12303;DHT22;6214;48.012;7.862;2023-04-24T00:06:19;13.70;99.90
12303;DHT22;6214;48.012;7.862;2023-04-24T00:08:47;13.80;99.90
12303;DHT22;6214;48.012;7.862;2023-04-24T00:11:13;13.80;99.90
12303;DHT22;6214;48.012;7.862;2023-04-24T00:13:40;13.80;99.90
12303;DHT22;6214;48.012;7.862;2023-04-24T00:16:07;13.70;99.90
12303;DHT22;6214;48.012;7.862;2023-04-24T00:18:34;13.70;99.90
12303;DHT22;6214;48.012;7.862;2023-04-24T00:21:01;13.70;99.90
12303;DHT22;6214;48.012;7.862;2023-04-24T00:23:29;13.60;99.90
12303;DHT22;6214;48.012;7.862;2023-04-24T00:25:56;13.70;99.90
12303;DHT22;6214;48.012;7.862;2023-04-24T00:28:23;13.70;99.90
12303;DHT22;6214;48.012;7.862;2023-04-24T00:30:50;13.70;99.90
12303;DHT22;6214;48.012;7.862;2023-04-24T00:33:17;13.70;99.90
12303;DHT22;6214;48.012;7.862;2023-04-24T00:35:44;13.60;99.90
12303;DHT22;6214;48.012;7.862;2023-04-24T00:38:11;13.70;99.90
12303;DHT22;6214;48.012;7.862;2023-04-24T00:40:38;13.60;99.90
12303;DHT22;6214;48.012;7.862;2023-04-24T00:43:05;13.70;99.90
12303;DHT22;6214;48.012;7.862;2023-04-24T00:45:34;13.50;99.90
12303;DHT22;6214;48.012;7.862;2023-04-24T00:48:01;13.60;99.90
12303;DHT22;6214;48.012;7.862;2023-04-24T00:50:29;13.60;99.90
12303;DHT22;6214;48.012;7.862;2023-04-24T00:52:57;13.60;99.90
12303;DHT22;6214;48.012;7.862;2023-04-24T00:55:24;13.60;99.90
12303;DHT22;6214;48.012;7.862;2023-04-24T00:57:52;13.50;99.90
12303;DHT22;6214;48.012;7.862;2023-04-24T01:00:19;13.40;99.90
12303;DHT22;6214;48.012;7.862;2023-04-24T01:02:47;13.40;99.90
12303;DHT22;6214;48.012;7.862;2023-04-24T01:05:15;13.40;99.90
12303;DHT22;6214;48.012;7.862;2023-04-24T01:07:44;13.40;99.90
12303;DHT22;6214;48.012;7.862;2023-04-24T01:10:13;13.30;99.90
12303;DHT22;6214;48.012;7.862;2023-04-24T01:12:41;13.30;99.90
12303;DHT22;6214;48.012;7.862;2023-04-24T01:15:08;13.30;99.90
12303;DHT22;6214;48.012;7.862;2023-04-24T01:17:35;13.20;99.90
12303;DHT22;6214;48.012;7.862;2023-04-24T01:20:03;13.30;99.90
12303;DHT22;6214;48.012;7.862;2023-04-24T01:22:35;13.40;99.90
12303;DHT22;6214;48.012;7.862;2023-04-24T01:25:03;13.30;99.90
12303;DHT22;6214;48.012;7.862;2023-04-24T01:27:30;13.40;99.90
12303;DHT22;6214;48.012;7.862;2023-04-24T01:29:57;13.40;99.90
12303;DHT22;6214;48.012;7.862;2023-04-24T01:32:25;13.40;99.90
12303;DHT22;6214;48.012;7.862;2023-04-24T01:34:52;13.40;99.90
12303;DHT22;6214;48.012;7.862;2023-04-24T01:37:19;13.30;99.90
12303;DHT22;6214;48.012;7.862;2023-04-24T01:39:46;13.30;99.90
12303;DHT22;6214;48.012;7.862;2023-04-24T01:42:13;13.40;99.90
12303;DHT22;6214;48.012;7.862;2023-04-24T01:44:41;13.30;99.90
12303;DHT22;6214;48.012;7.862;2023-04-24T01:47:08;13.20;99.90
12303;DHT22;6214;48.012;7.862;2023-04-24T01:49:40;13.30;99.90
12303;DHT22;6214;48.012;7.862;2023-04-24T01:52:07;13.30;99.90
12303;DHT22;6214;48.012;7.862;2023-04-24T01:54:34;13.30;99.90
12303;DHT22;6214;48.012;7.862;2023-04-24T01:57:01;13.30;99.90
12303;DHT22;6214;48.012;7.862;2023-04-24T01:59:30;13.10;99.90
12303;DHT22;6214;48.012;7.862;2023-04-24T02:01:57;13.20;99.90
12303;DHT22;6214;48.012;7.862;2023-04-24T02:04:24;13.20;99.90
12303;DHT22;6214;48.012;7.862;2023-04-24T02:06:51;12.10;99.90
12303;DHT22;6214;48.012;7.862;2023-04-24T02:09:18;13.20;99.90
12303;DHT22;6214;48.012;7.862;2023-04-24T02:11:45;13.20;99.90
12303;DHT22;6214;48.012;7.862;2023-04-24T02:14:12;13.20;99.90
12303;DHT22;6214;48.012;7.862;2023-04-24T02:16:39;13.30;99.90
12303;DHT22;6214;48.012;7.862;2023-04-24T02:19:06;13.30;99.90
12303;DHT22;6214;48.012;7.862;2023-04-24T02:21:33;13.30;99.90
12303;DHT22;6214;48.012;7.862;2023-04-24T02:24:00;13.20;99.90
12303;DHT22;6214;48.012;7.862;2023-04-24T02:26:27;13.20;99.90
12303;DHT22;6214;48.012;7.862;2023-04-24T02:28:54;13.00;99.90
12303;DHT22;6214;48.012;7.862;2023-04-24T02:31:21;13.00;99.90
12303;DHT22;6214;48.012;7.862;2023-04-24T02:33:48;13.00;99.90
12303;DHT22;6214;48.012;7.862;2023-04-24T02:36:15;13.00;99.90
12303;DHT22;6214;48.012;7.862;2023-04-24T02:38:42;12.90;99.90
12303;DHT22;6214;48.012;7.862;2023-04-24T02:41:08;12.80;99.90
12303;DHT22;6214;48.012;7.862;2023-04-24T02:43:36;12.80;99.90
12303;DHT22;6214;48.012;7.862;2023-04-24T02:46:03;12.90;99.90
12303;DHT22;6214;48.012;7.862;2023-04-24T02:48:30;12.90;99.90
12303;DHT22;6214;48.012;7.862;2023-04-24T02:50:58;13.00;99.90
12303;DHT22;6214;48.012;7.862;2023-04-24T02:53:25;13.00;99.90
12303;DHT22;6214;48.012;7.862;2023-04-24T02:55:52;12.90;99.90
12303;DHT22;6214;48.012;7.862;2023-04-24T02:58:19;12.90;99.90
12303;DHT22;6214;48.012;7.862;2023-04-24T03:00:46;13.00;99.90
12303;DHT22;6214;48.012;7.862;2023-04-24T03:03:14;13.10;99.90
12303;DHT22;6214;48.012;7.862;2023-04-24T03:05:42;13.10;99.90
12303;DHT22;6214;48.012;7.862;2023-04-24T03:08:09;13.20;99.90
12303;DHT22;6214;48.012;7.862;2023-04-24T03:10:37;13.10;99.90
12303;DHT22;6214;48.012;7.862;2023-04-24T03:13:03;13.10;99.90
12303;DHT22;6214;48.012;7.862;2023-04-24T03:15:31;13.10;99.90
12303;DHT22;6214;48.012;7.862;2023-04-24T03:17:58;13.00;99.90
12303;DHT22;6214;48.012;7.862;2023-04-24T03:20:25;13.00;99.90
12303;DHT22;6214;48.012;7.862;2023-04-24T03:22:52;13.10;99.90
12303;DHT22;6214;48.012;7.862;2023-04-24T03:25:19;13.00;99.90
12303;DHT22;6214;48.012;7.862;2023-04-24T03:27:46;13.00;99.90
12303;DHT22;6214;48.012;7.862;2023-04-24T03:30:13;13.10;99.90
12303;DHT22;6214;48.012;7.862;2023-04-24T03:32:40;13.10;99.90
12303;DHT22;6214;48.012;7.862;2023-04-24T03:35:07;13.10;99.90
12303;DHT22;6214;48.012;7.862;2023-04-24T03:37:35;13.10;99.90
12303;DHT22;6214;48.012;7.862;2023-04-24T03:40:02;12.90;99.90
12303;DHT22;6214;48.012;7.862;2023-04-24T03:42:29;12.90;99.90
12303;DHT22;6214;48.012;7.862;2023-04-24T03:44:56;12.80;99.90
12303;DHT22;6214;48.012;7.862;2023-04-24T03:47:23;12.80;99.90
12303;DHT22;6214;48.012;7.862;2023-04-24T03:49:50;12.80;99.90
12303;DHT22;6214;48.012;7.862;2023-04-24T03:52:17;12.80;99.90
12303;DHT22;6214;48.012;7.862;2023-04-24T03:54:44;12.80;99.90
12303;DHT22;6214;48.012;7.862;2023-04-24T03:57:11;12.80;99.90
12303;DHT22;6214;48.012;7.862;2023-04-24T03:59:38;12.90;99.90
12303;DHT22;6214;48.012;7.862;2023-04-24T04:02:05;12.90;99.90
12303;DHT22;6214;48.012;7.862;2023-04-24T04:04:32;12.80;99.90
12303;DHT22;6214;48.012;7.862;2023-04-24T04:06:59;13.00;99.90
12303;DHT22;6214;48.012;7.862;2023-04-24T04:09:29;13.00;99.90
12303;DHT22;6214;48.012;7.862;2023-04-24T04:11:56;12.90;99.90
12303;DHT22;6214;48.012;7.862;2023-04-24T04:14:23;12.90;99.90
12303;DHT22;6214;48.012;7.862;2023-04-24T04:16:51;12.90;99.90
12303;DHT22;6214;48.012;7.862;2023-04-24T04:19:20;12.90;99.90
12303;DHT22;6214;48.012;7.862;2023-04-24T04:21:47;12.80;99.90
12303;DHT22;6214;48.012;7.862;2023-04-24T04:24:19;13.00;99.90
12303;DHT22;6214;48.012;7.862;2023-04-24T04:26:50;12.90;99.90
12303;DHT22;6214;48.012;7.862;2023-04-24T04:29:18;12.80;99.90
12303;DHT22;6214;48.012;7.862;2023-04-24T04:31:45;12.80;99.90
12303;DHT22;6214;48.012;7.862;2023-04-24T04:34:12;12.70;99.90
12303;DHT22;6214;48.012;7.862;2023-04-24T04:36:41;12.60;99.90
12303;DHT22;6214;48.012;7.862;2023-04-24T04:39:08;12.60;99.90
12303;DHT22;6214;48.012;7.862;2023-04-24T04:41:35;12.50;99.90
12303;DHT22;6214;48.012;7.862;2023-04-24T04:44:02;12.60;99.90
12303;DHT22;6214;48.012;7.862;2023-04-24T04:46:31;12.70;99.90
12303;DHT22;6214;48.012;7.862;2023-04-24T04:49:00;12.70;99.90
12303;DHT22;6214;48.012;7.862;2023-04-24T04:51:28;12.70;99.90
12303;DHT22;6214;48.012;7.862;2023-04-24T04:53:55;12.70;99.90
12303;DHT22;6214;48.012;7.862;2023-04-24T04:56:21;12.90;99.90
12303;DHT22;6214;48.012;7.862;2023-04-24T04:58:48;12.80;99.90
12303;DHT22;6214;48.012;7.862;2023-04-24T05:01:15;12.90;99.90
12303;DHT22;6214;48.012;7.862;2023-04-24T05:03:42;13.00;99.90
12303;DHT22;6214;48.012;7.862;2023-04-24T05:06:10;12.90;99.90
12303;DHT22;6214;48.012;7.862;2023-04-24T05:08:37;12.70;99.90
12303;DHT22;6214;48.012;7.862;2023-04-24T05:11:04;12.80;99.90
12303;DHT22;6214;48.012;7.862;2023-04-24T05:13:31;12.80;99.90
12303;DHT22;6214;48.012;7.862;2023-04-24T05:16:07;12.90;99.90
12303;DHT22;6214;48.012;7.862;2023-04-24T05:18:34;12.90;99.90
12303;DHT22;6214;48.012;7.862;2023-04-24T05:21:01;12.80;99.90
12303;DHT22;6214;48.012;7.862;2023-04-24T05:23:28;12.80;99.90
12303;DHT22;6214;48.012;7.862;2023-04-24T05:25:55;12.90;99.90
12303;DHT22;6214;48.012;7.862;2023-04-24T05:28:22;12.80;99.90
12303;DHT22;6214;48.012;7.862;2023-04-24T05:30:49;12.80;99.90
12303;DHT22;6214;48.012;7.862;2023-04-24T05:33:16;12.70;99.90
12303;DHT22;6214;48.012;7.862;2023-04-24T05:35:43;12.60;99.90
12303;DHT22;6214;48.012;7.862;2023-04-24T05:38:13;12.50;99.90
12303;DHT22;6214;48.012;7.862;2023-04-24T05:40:40;12.50;99.90
12303;DHT22;6214;48.012;7.862;2023-04-24T05:43:07;12.50;99.90
12303;DHT22;6214;48.012;7.862;2023-04-24T05:45:34;12.50;99.90
12303;DHT22;6214;48.012;7.862;2023-04-24T05:48:03;12.50;99.90
12303;DHT22;6214;48.012;7.862;2023-04-24T05:50:30;12.50;99.90
12303;DHT22;6214;48.012;7.862;2023-04-24T05:52:57;12.50;99.90
12303;DHT22;6214;48.012;7.862;2023-04-24T05:55:28;12.50;99.90
12303;DHT22;6214;48.012;7.862;2023-04-24T05:57:55;12.50;99.90
12303;DHT22;6214;48.012;7.862;2023-04-24T06:00:23;12.60;99.90
12303;DHT22;6214;48.012;7.862;2023-04-24T06:02:51;12.50;99.90
12303;DHT22;6214;48.012;7.862;2023-04-24T06:05:19;12.50;99.90
12303;DHT22;6214;48.012;7.862;2023-04-24T06:07:47;12.70;99.90
12303;DHT22;6214;48.012;7.862;2023-04-24T06:10:14;12.90;99.90
12303;DHT22;6214;48.012;7.862;2023-04-24T06:12:42;13.20;99.90
12303;DHT22;6214;48.012;7.862;2023-04-24T06:15:09;13.60;99.90
12303;DHT22;6214;48.012;7.862;2023-04-24T06:17:36;14.00;99.90
12303;DHT22;6214;48.012;7.862;2023-04-24T06:20:03;14.20;99.90
12303;DHT22;6214;48.012;7.862;2023-04-24T06:22:32;14.00;99.90
12303;DHT22;6214;48.012;7.862;2023-04-24T06:24:59;13.80;99.90
12303;DHT22;6214;48.012;7.862;2023-04-24T06:27:27;13.60;99.90
12303;DHT22;6214;48.012;7.862;2023-04-24T06:29:54;13.50;99.90
12303;DHT22;6214;48.012;7.862;2023-04-24T06:32:22;13.20;99.90
12303;DHT22;6214;48.012;7.862;2023-04-24T06:34:53;13.10;99.90
12303;DHT22;6214;48.012;7.862;2023-04-24T06:37:20;13.00;99.90
12303;DHT22;6214;48.012;7.862;2023-04-24T06:39:47;13.00;99.90
12303;DHT22;6214;48.012;7.862;2023-04-24T06:42:14;13.00;99.90
12303;DHT22;6214;48.012;7.862;2023-04-24T06:44:41;13.00;99.90
12303;DHT22;6214;48.012;7.862;2023-04-24T06:47:09;13.10;99.90
12303;DHT22;6214;48.012;7.862;2023-04-24T06:49:37;12.90;99.90
12303;DHT22;6214;48.012;7.862;2023-04-24T06:52:04;12.90;99.90
12303;DHT22;6214;48.012;7.862;2023-04-24T06:54:31;12.90;99.90
12303;DHT22;6214;48.012;7.862;2023-04-24T06:56:59;13.10;99.90
12303;DHT22;6214;48.012;7.862;2023-04-24T06:59:30;13.10;99.90
12303;DHT22;6214;48.012;7.862;2023-04-24T07:01:57;13.20;99.90
12303;DHT22;6214;48.012;7.862;2023-04-24T07:04:24;13.10;99.90
12303;DHT22;6214;48.012;7.862;2023-04-24T07:06:52;13.10;99.90
12303;DHT22;6214;48.012;7.862;2023-04-24T07:09:24;13.40;99.90
12303;DHT22;6214;48.012;7.862;2023-04-24T07:11:52;13.70;99.90
12303;DHT22;6214;48.012;7.862;2023-04-24T07:14:20;13.90;99.90
12303;DHT22;6214;48.012;7.862;2023-04-24T07:16:47;14.30;99.90
12303;DHT22;6214;48.012;7.862;2023-04-24T07:19:14;14.70;99.90
12303;DHT22;6214;48.012;7.862;2023-04-24T07:21:41;15.50;99.90
12303;DHT22;6214;48.012;7.862;2023-04-24T07:24:08;16.30;99.90
12303;DHT22;6214;48.012;7.862;2023-04-24T07:26:39;18.30;99.90
12303;DHT22;6214;48.012;7.862;2023-04-24T07:29:07;22.60;99.90
12303;DHT22;6214;48.012;7.862;2023-04-24T07:31:34;23.80;99.90
12303;DHT22;6214;48.012;7.862;2023-04-24T07:34:01;25.10;99.90
12303;DHT22;6214;48.012;7.862;2023-04-24T07:36:28;26.60;99.90
12303;DHT22;6214;48.012;7.862;2023-04-24T07:38:55;27.20;96.30
12303;DHT22;6214;48.012;7.862;2023-04-24T07:41:23;28.30;94.30
12303;DHT22;6214;48.012;7.862;2023-04-24T07:43:51;29.30;91.30
12303;DHT22;6214;48.012;7.862;2023-04-24T07:46:20;30.30;82.40
12303;DHT22;6214;48.012;7.862;2023-04-24T07:48:47;32.10;78.40
12303;DHT22;6214;48.012;7.862;2023-04-24T07:51:27;33.00;68.40
12303;DHT22;6214;48.012;7.862;2023-04-24T07:53:54;31.70;61.10
12303;DHT22;6214;48.012;7.862;2023-04-24T07:56:22;28.50;65.80
12303;DHT22;6214;48.012;7.862;2023-04-24T07:58:48;24.50;71.30
12303;DHT22;6214;48.012;7.862;2023-04-24T08:01:15;20.70;81.10
12303;DHT22;6214;48.012;7.862;2023-04-24T08:03:42;18.40;92.50
12303;DHT22;6214;48.012;7.862;2023-04-24T08:06:09;16.90;98.00
12303;DHT22;6214;48.012;7.862;2023-04-24T08:08:36;15.80;99.90
12303;DHT22;6214;48.012;7.862;2023-04-24T08:11:03;15.00;99.90
12303;DHT22;6214;48.012;7.862;2023-04-24T08:13:30;15.00;99.90
12303;DHT22;6214;48.012;7.862;2023-04-24T08:15:57;15.10;99.90
12303;DHT22;6214;48.012;7.862;2023-04-24T08:18:24;16.40;99.90
12303;DHT22;6214;48.012;7.862;2023-04-24T08:20:51;16.20;99.90
12303;DHT22;6214;48.012;7.862;2023-04-24T08:23:18;15.80;99.90
12303;DHT22;6214;48.012;7.862;2023-04-24T08:25:45;16.00;99.90
12303;DHT22;6214;48.012;7.862;2023-04-24T08:28:12;15.60;99.90
12303;DHT22;6214;48.012;7.862;2023-04-24T08:30:42;15.80;99.90
12303;DHT22;6214;48.012;7.862;2023-04-24T08:33:10;19.10;99.90
12303;DHT22;6214;48.012;7.862;2023-04-24T08:35:36;19.30;99.90
12303;DHT22;6214;48.012;7.862;2023-04-24T08:38:03;18.30;99.90
12303;DHT22;6214;48.012;7.862;2023-04-24T08:40:33;17.70;99.90
12303;DHT22;6214;48.012;7.862;2023-04-24T08:43:01;17.20;99.90
12303;DHT22;6214;48.012;7.862;2023-04-24T08:45:29;16.30;99.90
12303;DHT22;6214;48.012;7.862;2023-04-24T08:47:57;16.30;99.90
12303;DHT22;6214;48.012;7.862;2023-04-24T08:50:25;16.50;99.90
12303;DHT22;6214;48.012;7.862;2023-04-24T08:52:52;16.90;99.90
12303;DHT22;6214;48.012;7.862;2023-04-24T08:55:20;17.20;99.90
12303;DHT22;6214;48.012;7.862;2023-04-24T08:57:52;18.00;99.90
12303;DHT22;6214;48.012;7.862;2023-04-24T09:00:21;23.00;99.90
12303;DHT22;6214;48.012;7.862;2023-04-24T09:02:53;24.80;92.80
12303;DHT22;6214;48.012;7.862;2023-04-24T09:05:21;25.10;84.00
12303;DHT22;6214;48.012;7.862;2023-04-24T09:07:54;25.00;82.20
12303;DHT22;6214;48.012;7.862;2023-04-24T09:10:25;24.00;79.20
12303;DHT22;6214;48.012;7.862;2023-04-24T09:12:52;24.70;80.10
12303;DHT22;6214;48.012;7.862;2023-04-24T09:15:19;25.70;75.70
12303;DHT22;6214;48.012;7.862;2023-04-24T09:17:47;22.90;74.70
12303;DHT22;6214;48.012;7.862;2023-04-24T09:20:14;20.90;77.70
12303;DHT22;6214;48.012;7.862;2023-04-24T09:22:42;18.60;81.80
12303;DHT22;6214;48.012;7.862;2023-04-24T09:25:10;17.40;88.60
12303;DHT22;6214;48.012;7.862;2023-04-24T09:27:43;16.70;91.80
12303;DHT22;6214;48.012;7.862;2023-04-24T09:30:12;17.40;93.80
12303;DHT22;6214;48.012;7.862;2023-04-24T09:32:39;18.50;93.30
12303;DHT22;6214;48.012;7.862;2023-04-24T09:35:10;21.60;92.50
12303;DHT22;6214;48.012;7.862;2023-04-24T09:37:39;22.40;83.30
12303;DHT22;6214;48.012;7.862;2023-04-24T09:40:17;21.00;81.90
12303;DHT22;6214;48.012;7.862;2023-04-24T09:42:46;19.50;82.70
12303;DHT22;6214;48.012;7.862;2023-04-24T09:45:13;17.80;86.30
12303;DHT22;6214;48.012;7.862;2023-04-24T09:47:42;16.80;91.10
12303;DHT22;6214;48.012;7.862;2023-04-24T09:50:18;16.60;92.40
12303;DHT22;6214;48.012;7.862;2023-04-24T09:53:05;16.40;93.90
12303;DHT22;6214;48.012;7.862;2023-04-24T09:55:39;16.30;95.10
12303;DHT22;6214;48.012;7.862;2023-04-24T09:58:08;17.10;95.60
12303;DHT22;6214;48.012;7.862;2023-04-24T10:00:34;18.20;94.80
12303;DHT22;6214;48.012;7.862;2023-04-24T10:03:03;17.90;93.40
12303;DHT22;6214;48.012;7.862;2023-04-24T10:05:33;17.80;93.70
12303;DHT22;6214;48.012;7.862;2023-04-24T10:08:10;18.30;94.10
12303;DHT22;6214;48.012;7.862;2023-04-24T10:10:42;18.60;93.60
12303;DHT22;6214;48.012;7.862;2023-04-24T10:13:10;18.50;92.80
12303;DHT22;6214;48.012;7.862;2023-04-24T10:15:38;18.40;91.30
12303;DHT22;6214;48.012;7.862;2023-04-24T10:18:05;17.70;90.50
12303;DHT22;6214;48.012;7.862;2023-04-24T10:20:34;18.50;92.20
12303;DHT22;6214;48.012;7.862;2023-04-24T10:23:03;18.90;91.70
12303;DHT22;6214;48.012;7.862;2023-04-24T10:25:32;18.70;91.00
12303;DHT22;6214;48.012;7.862;2023-04-24T10:28:01;18.90;91.30
12303;DHT22;6214;48.012;7.862;2023-04-24T10:30:30;19.10;90.70
12303;DHT22;6214;48.012;7.862;2023-04-24T10:33:06;18.90;90.40
12303;DHT22;6214;48.012;7.862;2023-04-24T10:35:38;18.40;90.90
12303;DHT22;6214;48.012;7.862;2023-04-24T10:38:09;18.80;91.20
12303;DHT22;6214;48.012;7.862;2023-04-24T10:40:36;18.40;90.80
12303;DHT22;6214;48.012;7.862;2023-04-24T10:43:07;18.30;91.80
12303;DHT22;6214;48.012;7.862;2023-04-24T10:45:36;18.60;91.90
12303;DHT22;6214;48.012;7.862;2023-04-24T10:48:07;19.50;92.70
12303;DHT22;6214;48.012;7.862;2023-04-24T10:50:46;20.30;90.50
12303;DHT22;6214;48.012;7.862;2023-04-24T10:53:21;19.00;90.00
12303;DHT22;6214;48.012;7.862;2023-04-24T10:56:07;17.90;91.10
12303;DHT22;6214;48.012;7.862;2023-04-24T10:58:40;17.60;91.20
12303;DHT22;6214;48.012;7.862;2023-04-24T11:01:07;17.40;92.10
12303;DHT22;6214;48.012;7.862;2023-04-24T11:03:35;17.30;92.40
12303;DHT22;6214;48.012;7.862;2023-04-24T11:06:05;17.00;92.30
12303;DHT22;6214;48.012;7.862;2023-04-24T11:08:39;17.10;92.70
12303;DHT22;6214;48.012;7.862;2023-04-24T11:11:12;17.30;93.10
12303;DHT22;6214;48.012;7.862;2023-04-24T11:21:59;16.70;94.30
12303;DHT22;6214;48.012;7.862;2023-04-24T11:27:21;16.20;95.60
12303;DHT22;6214;48.012;7.862;2023-04-24T11:32:30;15.90;97.20
12303;DHT22;6214;48.012;7.862;2023-04-24T11:35:00;16.00;97.70
12303;DHT22;6214;48.012;7.862;2023-04-24T11:37:33;16.10;97.40
12303;DHT22;6214;48.012;7.862;2023-04-24T11:40:00;16.20;97.50
12303;DHT22;6214;48.012;7.862;2023-04-24T11:42:29;16.50;97.60
12303;DHT22;6214;48.012;7.862;2023-04-24T11:44:59;16.50;97.60
12303;DHT22;6214;48.012;7.862;2023-04-24T11:47:32;16.10;97.80
12303;DHT22;6214;48.012;7.862;2023-04-24T11:50:01;16.20;98.50
12303;DHT22;6214;48.012;7.862;2023-04-24T11:52:29;16.40;98.50
12303;DHT22;6214;48.012;7.862;2023-04-24T11:54:57;17.00;99.00
12303;DHT22;6214;48.012;7.862;2023-04-24T11:57:25;17.40;99.40
12303;DHT22;6214;48.012;7.862;2023-04-24T11:59:55;17.50;99.00
12303;DHT22;6214;48.012;7.862;2023-04-24T12:02:23;17.60;98.80
12303;DHT22;6214;48.012;7.862;2023-04-24T12:04:53;17.50;98.00
12303;DHT22;6214;48.012;7.862;2023-04-24T12:07:21;17.30;97.70
12303;DHT22;6214;48.012;7.862;2023-04-24T12:09:59;17.10;97.90
12303;DHT22;6214;48.012;7.862;2023-04-24T12:12:28;16.60;98.00
12303;DHT22;6214;48.012;7.862;2023-04-24T12:14:57;16.10;98.60
12303;DHT22;6214;48.012;7.862;2023-04-24T12:17:32;15.60;99.20
12303;DHT22;6214;48.012;7.862;2023-04-24T12:20:05;15.60;99.90
12303;DHT22;6214;48.012;7.862;2023-04-24T12:22:54;15.50;99.90
12303;DHT22;6214;48.012;7.862;2023-04-24T12:25:23;15.40;99.90
12303;DHT22;6214;48.012;7.862;2023-04-24T12:28:11;15.30;99.90
12303;DHT22;6214;48.012;7.862;2023-04-24T12:30:43;15.30;99.90
12303;DHT22;6214;48.012;7.862;2023-04-24T12:33:18;15.60;99.90
12303;DHT22;6214;48.012;7.862;2023-04-24T12:35:52;15.40;99.90
12303;DHT22;6214;48.012;7.862;2023-04-24T12:38:25;15.20;99.90
12303;DHT22;6214;48.012;7.862;2023-04-24T12:41:09;15.00;99.90
12303;DHT22;6214;48.012;7.862;2023-04-24T12:43:37;15.20;99.90
12303;DHT22;6214;48.012;7.862;2023-04-24T12:46:04;15.30;99.90
12303;DHT22;6214;48.012;7.862;2023-04-24T12:48:31;15.70;99.90
12303;DHT22;6214;48.012;7.862;2023-04-24T12:50:59;16.40;99.90
12303;DHT22;6214;48.012;7.862;2023-04-24T12:53:28;16.70;99.90
12303;DHT22;6214;48.012;7.862;2023-04-24T12:55:57;17.30;99.90
12303;DHT22;6214;48.012;7.862;2023-04-24T12:58:24;17.50;99.90
12303;DHT22;6214;48.012;7.862;2023-04-24T13:00:51;17.70;99.90
12303;DHT22;6214;48.012;7.862;2023-04-24T13:03:18;17.80;99.90
12303;DHT22;6214;48.012;7.862;2023-04-24T13:05:46;18.10;99.60
12303;DHT22;6214;48.012;7.862;2023-04-24T13:08:14;17.80;99.50
12303;DHT22;6214;48.012;7.862;2023-04-24T13:10:41;17.60;99.70
12303;DHT22;6214;48.012;7.862;2023-04-24T13:13:08;17.60;99.50
12303;DHT22;6214;48.012;7.862;2023-04-24T13:15:35;17.80;99.20
12303;DHT22;6214;48.012;7.862;2023-04-24T13:18:02;18.00;99.30
12303;DHT22;6214;48.012;7.862;2023-04-24T13:20:30;18.00;99.20
12303;DHT22;6214;48.012;7.862;2023-04-24T13:22:56;18.00;98.70
12303;DHT22;6214;48.012;7.862;2023-04-24T13:25:23;17.90;98.80
12303;DHT22;6214;48.012;7.862;2023-04-24T13:27:51;18.20;98.70
12303;DHT22;6214;48.012;7.862;2023-04-24T13:30:18;17.50;97.90
12303;DHT22;6214;48.012;7.862;2023-04-24T13:32:45;17.10;97.90
12303;DHT22;6214;48.012;7.862;2023-04-24T13:35:12;17.00;98.30
12303;DHT22;6214;48.012;7.862;2023-04-24T13:37:39;17.10;98.20
12303;DHT22;6214;48.012;7.862;2023-04-24T13:40:06;17.10;98.70
12303;DHT22;6214;48.012;7.862;2023-04-24T13:42:34;17.30;98.70
12303;DHT22;6214;48.012;7.862;2023-04-24T13:45:01;17.50;99.00
12303;DHT22;6214;48.012;7.862;2023-04-24T13:47:43;17.30;98.50
12303;DHT22;6214;48.012;7.862;2023-04-24T13:50:10;17.50;99.00
12303;DHT22;6214;48.012;7.862;2023-04-24T13:52:37;17.40;99.40
12303;DHT22;6214;48.012;7.862;2023-04-24T13:55:05;17.30;99.70
12303;DHT22;6214;48.012;7.862;2023-04-24T13:57:32;17.20;99.90
12303;DHT22;6214;48.012;7.862;2023-04-24T13:59:59;17.50;99.90
12303;DHT22;6214;48.012;7.862;2023-04-24T14:02:28;17.30;99.90
12303;DHT22;6214;48.012;7.862;2023-04-24T14:04:56;17.60;99.90
12303;DHT22;6214;48.012;7.862;2023-04-24T14:07:23;18.00;99.90
12303;DHT22;6214;48.012;7.862;2023-04-24T14:09:50;17.90;99.90
12303;DHT22;6214;48.012;7.862;2023-04-24T14:12:17;17.50;99.90
12303;DHT22;6214;48.012;7.862;2023-04-24T14:14:46;17.20;99.90
12303;DHT22;6214;48.012;7.862;2023-04-24T14:17:14;16.70;99.90
12303;DHT22;6214;48.012;7.862;2023-04-24T14:19:41;16.30;99.90
12303;DHT22;6214;48.012;7.862;2023-04-24T14:22:09;15.80;99.90
12303;DHT22;6214;48.012;7.862;2023-04-24T14:24:36;15.80;99.90
12303;DHT22;6214;48.012;7.862;2023-04-24T14:27:03;15.70;99.90
12303;DHT22;6214;48.012;7.862;2023-04-24T14:29:30;15.70;99.90
12303;DHT22;6214;48.012;7.862;2023-04-24T14:31:58;15.80;99.90
12303;DHT22;6214;48.012;7.862;2023-04-24T14:34:25;16.00;99.90
12303;DHT22;6214;48.012;7.862;2023-04-24T14:36:52;16.20;99.90
12303;DHT22;6214;48.012;7.862;2023-04-24T14:39:19;16.20;99.90
12303;DHT22;6214;48.012;7.862;2023-04-24T14:41:47;16.10;99.90
12303;DHT22;6214;48.012;7.862;2023-04-24T14:44:13;16.00;99.90
12303;DHT22;6214;48.012;7.862;2023-04-24T14:46:41;16.00;99.90
12303;DHT22;6214;48.012;7.862;2023-04-24T14:49:09;15.90;99.90
12303;DHT22;6214;48.012;7.862;2023-04-24T14:51:36;15.70;99.90
12303;DHT22;6214;48.012;7.862;2023-04-24T14:54:03;15.70;99.90
12303;DHT22;6214;48.012;7.862;2023-04-24T14:56:30;16.00;99.90
12303;DHT22;6214;48.012;7.862;2023-04-24T14:58:57;16.20;99.90
12303;DHT22;6214;48.012;7.862;2023-04-24T15:01:25;16.30;99.90
12303;DHT22;6214;48.012;7.862;2023-04-24T15:03:52;16.70;99.90
12303;DHT22;6214;48.012;7.862;2023-04-24T15:06:19;16.80;99.90
12303;DHT22;6214;48.012;7.862;2023-04-24T15:08:47;16.90;99.90
12303;DHT22;6214;48.012;7.862;2023-04-24T15:11:16;16.70;99.90
12303;DHT22;6214;48.012;7.862;2023-04-24T15:13:43;16.60;99.90
12303;DHT22;6214;48.012;7.862;2023-04-24T15:16:12;16.50;99.90
12303;DHT22;6214;48.012;7.862;2023-04-24T15:18:39;16.20;99.90
12303;DHT22;6214;48.012;7.862;2023-04-24T15:21:06;16.40;99.90
12303;DHT22;6214;48.012;7.862;2023-04-24T15:23:33;16.50;99.90
12303;DHT22;6214;48.012;7.862;2023-04-24T15:26:00;16.50;99.90
12303;DHT22;6214;48.012;7.862;2023-04-24T15:28:30;16.50;99.90
12303;DHT22;6214;48.012;7.862;2023-04-24T15:30:57;16.40;99.90
12303;DHT22;6214;48.012;7.862;2023-04-24T15:33:24;16.20;99.90
12303;DHT22;6214;48.012;7.862;2023-04-24T15:35:52;16.30;99.90
12303;DHT22;6214;48.012;7.862;2023-04-24T15:38:19;16.10;99.90
12303;DHT22;6214;48.012;7.862;2023-04-24T15:40:46;15.80;99.90
12303;DHT22;6214;48.012;7.862;2023-04-24T15:43:14;15.50;99.90
12303;DHT22;6214;48.012;7.862;2023-04-24T15:45:43;15.70;99.90
12303;DHT22;6214;48.012;7.862;2023-04-24T15:48:10;15.70;99.90
12303;DHT22;6214;48.012;7.862;2023-04-24T15:50:37;15.70;99.90
12303;DHT22;6214;48.012;7.862;2023-04-24T15:53:05;15.60;99.90
12303;DHT22;6214;48.012;7.862;2023-04-24T15:55:32;15.80;99.90
12303;DHT22;6214;48.012;7.862;2023-04-24T15:58:00;15.70;99.90
12303;DHT22;6214;48.012;7.862;2023-04-24T16:00:27;15.60;99.90
12303;DHT22;6214;48.012;7.862;2023-04-24T16:03:00;15.70;99.90
12303;DHT22;6214;48.012;7.862;2023-04-24T16:05:28;15.70;99.90